Terminal Aerodrome Forecast
Issued by NWS

Home | Current Version | Previous Version | Text Only | Print | Product List | Glossary On
Versions: 1 2 3 4 5 6 7 8 9 10 11 12
000
FTUS41 KBTV 272337
TAFPBG
TAF
KPBG 272337Z 2800/2824 00000KT P6SM SCT120
     FM281200 03008KT P6SM BKN100
     FM281900 09012KT P6SM SCT100=

USA.gov is the U.S. government's official web portal to all federal, state and local government web resources and services.